Elmira, Oregon
Current Conditions -  °F | °C
As of 10:54 AM on Friday 24 Oct 2014 (Local Time) from KEUG Reporting Station
Light Rain Light Rain  
Wind Chill: 52°   Ceiling: 600
Heat Index: 52°   Visibility: 8mi
Dew Point: 49°   Wind: 8mph
Humidity: 89%   Direction: 360°N
Pressure: 29.93"   Gusts: NA
Location:  44.07°N, 123.35°W
Report Text: KEUG 241754Z 36007KT 8SM -RA BKN006 OVC070 11/09 A2993 RMK AO2 RAB47 SLP136 P0000 60000 T01110094 10111 20094 58010
Loading
Personal Weather Stations






























Interactive Weather Map
Tropical Storm Tracking
New forecast layout! Learn more

10-Day Weather Forecast

Advertisements
Track Severe Weather on mobile